Time;durP1;ratioP1;P1;durP2;ratioP2;P2;SDS_P1;SDS_P2;PMS_P1;PMS_P2;Temp;Humidity;BMP_temperature;BMP_pressure;BME280_temperature;BME280_humidity;BME280_pressure;Samples;Min_cycle;Max_cycle;Signal;HPM_P1;HPM_P2
2024/04/14 00:00:18;;;;;;;7.30;5.83;;;22.40;49.50;;;;;;5398705;26;20298;-62
2024/04/14 00:02:43;;;;;;;7.37;6.17;;;22.40;49.40;;;;;;5398894;26;20283;-63
2024/04/14 00:05:09;;;;;;;6.37;5.77;;;22.50;50.10;;;;;;5398556;26;20246;-61
2024/04/14 00:07:36;;;;;;;7.63;6.00;;;22.50;49.40;;;;;;5402270;26;20783;-60
2024/04/14 00:10:02;;;;;;;6.13;5.53;;;22.50;49.30;;;;;;5399337;26;20296;-61
2024/04/14 00:12:28;;;;;;;7.03;6.33;;;22.50;49.70;;;;;;5395244;26;20461;-62
2024/04/14 00:14:53;;;;;;;5.97;5.43;;;22.30;49.60;;;;;;5398644;26;20245;-62
2024/04/14 00:17:19;;;;;;;9.73;5.50;;;22.30;49.50;;;;;;5397755;26;20468;-59
2024/04/14 00:19:44;;;;;;;6.33;5.73;;;22.30;49.60;;;;;;5397160;26;20638;-62
2024/04/14 00:22:10;;;;;;;6.90;6.03;;;22.30;49.50;;;;;;5410395;26;20237;-60
2024/04/14 00:24:35;;;;;;;6.37;5.70;;;22.40;49.30;;;;;;5402468;26;20227;-62
2024/04/14 00:27:01;;;;;;;8.73;5.63;;;22.50;49.30;;;;;;5407566;26;20290;-63
2024/04/14 00:29:26;;;;;;;6.20;5.60;;;22.40;49.30;;;;;;5406085;26;20276;-62
2024/04/14 00:31:52;;;;;;;6.50;5.93;;;22.40;49.30;;;;;;5410807;26;20272;-60
2024/04/14 00:34:17;;;;;;;6.90;6.30;;;22.40;49.30;;;;;;5403293;26;20302;-60
2024/04/14 00:36:43;;;;;;;8.00;6.00;;;22.30;49.30;;;;;;5409227;26;20245;-63
2024/04/14 00:39:12;;;;;;;6.70;6.00;;;22.10;49.70;;;;;;5393007;26;20245;-60
2024/04/14 00:41:37;;;;;;;7.20;5.80;;;22.20;49.50;;;;;;5393332;26;20718;-62
2024/04/14 00:44:03;;;;;;;8.00;7.20;;;22.20;49.30;;;;;;5407713;26;20524;-60
2024/04/14 00:46:29;;;;;;;8.30;7.57;;;22.20;49.30;;;;;;5405843;26;20249;-59
2024/04/14 00:48:55;;;;;;;10.97;8.40;;;22.20;49.10;;;;;;5399086;26;20246;-60
2024/04/14 00:51:21;;;;;;;9.37;8.03;;;22.20;49.10;;;;;;5403218;26;20475;-63
2024/04/14 00:53:47;;;;;;;10.40;8.80;;;22.20;48.80;;;;;;5408300;26;20569;-59
2024/04/14 00:56:13;;;;;;;8.53;7.53;;;22.20;48.90;;;;;;5407993;26;20279;-62
2024/04/14 00:58:39;;;;;;;7.57;6.23;;;22.10;48.90;;;;;;5402663;26;20234;-61
2024/04/14 01:01:05;;;;;;;9.53;6.30;;;22.10;49.10;;;;;;5408338;26;20877;-59
2024/04/14 01:03:32;;;;;;;5.73;5.23;;;22.00;49.10;;;;;;5400977;26;20746;-60
2024/04/14 01:05:59;;;;;;;6.90;5.37;;;22.10;49.20;;;;;;5401433;26;20478;-60
2024/04/14 01:08:24;;;;;;;6.80;5.20;;;22.10;49.10;;;;;;5405737;26;20572;-60
2024/04/14 01:10:50;;;;;;;5.60;5.10;;;22.10;48.90;;;;;;5387947;26;20484;-60
2024/04/14 01:13:15;;;;;;;8.53;5.50;;;22.10;48.80;;;;;;5406207;26;20234;-58
2024/04/14 01:15:41;;;;;;;5.83;5.33;;;22.10;48.70;;;;;;5408612;26;20813;-62
2024/04/14 01:18:08;;;;;;;6.77;5.80;;;22.10;48.60;;;;;;5397969;26;20241;-59
2024/04/14 01:20:34;;;;;;;6.47;5.73;;;22.10;48.60;;;;;;5389223;26;20238;-61
2024/04/14 01:23:00;;;;;;;6.40;5.47;;;22.10;48.50;;;;;;5402332;26;21105;-63
2024/04/14 01:25:25;;;;;;;9.37;5.50;;;22.00;48.60;;;;;;5396127;26;20500;-64
2024/04/14 01:27:51;;;;;;;6.40;4.73;;;22.00;48.60;;;;;;5391197;26;20253;-62
2024/04/14 01:30:16;;;;;;;6.40;5.80;;;21.90;48.70;;;;;;5394501;26;20313;-62
2024/04/14 01:32:42;;;;;;;8.53;6.30;;;21.90;48.90;;;;;;5395570;26;20299;-64
2024/04/14 01:35:08;;;;;;;6.17;5.60;;;21.90;48.80;;;;;;5392491;26;20241;-61
2024/04/14 01:37:33;;;;;;;6.37;5.87;;;21.80;48.90;;;;;;5391604;26;20251;-65
2024/04/14 01:39:59;;;;;;;8.57;5.43;;;21.80;48.90;;;;;;5392111;26;20277;-64
2024/04/14 01:42:26;;;;;;;7.43;5.57;;;21.50;49.30;;;;;;5397410;26;20911;-60
2024/04/14 01:44:52;;;;;;;5.67;5.27;;;21.40;49.60;;;;;;5393736;26;21048;-64
2024/04/14 01:47:18;;;;;;;5.40;5.00;;;21.50;49.70;;;;;;5395121;26;20479;-62
2024/04/14 01:49:44;;;;;;;6.17;5.37;;;21.40;49.60;;;;;;5399308;26;20246;-63
2024/04/14 01:52:10;;;;;;;6.20;5.63;;;21.40;50.20;;;;;;5392969;26;20554;-64
2024/04/14 01:54:35;;;;;;;5.50;4.87;;;21.40;49.70;;;;;;5400963;26;20242;-59
2024/04/14 01:57:01;;;;;;;5.67;5.03;;;21.30;49.70;;;;;;5399052;26;20249;-62
2024/04/14 01:59:26;;;;;;;5.40;4.90;;;21.30;49.90;;;;;;5396209;26;20241;-64
2024/04/14 02:01:52;;;;;;;6.23;5.63;;;21.30;49.70;;;;;;5394101;26;20738;-60
2024/04/14 02:04:17;;;;;;;6.20;5.10;;;21.30;49.50;;;;;;5394046;26;20241;-59
2024/04/14 02:06:43;;;;;;;5.53;5.03;;;21.40;49.50;;;;;;5398934;26;20297;-62
2024/04/14 02:09:09;;;;;;;6.27;5.67;;;21.20;49.70;;;;;;5398950;26;20619;-62
2024/04/14 02:11:34;;;;;;;6.90;5.57;;;21.30;49.60;;;;;;5404802;26;20361;-63
2024/04/14 02:14:01;;;;;;;5.20;4.70;;;21.30;49.30;;;;;;5401863;26;20308;-63
2024/04/14 02:16:28;;;;;;;5.10;4.70;;;21.30;49.10;;;;;;5390897;26;20241;-62
2024/04/14 02:18:54;;;;;;;5.80;5.00;;;21.40;49.20;;;;;;5399638;26;20471;-61
2024/04/14 02:21:19;;;;;;;7.30;4.67;;;21.40;48.90;;;;;;5405787;26;20475;-62
2024/04/14 02:23:45;;;;;;;5.10;4.50;;;21.40;48.70;;;;;;5398521;26;20619;-63
2024/04/14 02:26:10;;;;;;;5.73;5.13;;;21.30;48.80;;;;;;5402998;26;20242;-62
2024/04/14 02:28:36;;;;;;;5.10;4.57;;;21.20;48.90;;;;;;5397944;26;20245;-61
2024/04/14 02:31:02;;;;;;;4.60;4.20;;;21.20;48.80;;;;;;5394589;26;20966;-62
2024/04/14 02:33:27;;;;;;;5.07;4.33;;;21.20;48.70;;;;;;5395850;26;20280;-59
2024/04/14 02:36:00;;;;;;;4.77;4.27;;;21.30;48.50;;;;;;5392462;26;20796;-61
2024/04/14 02:38:27;;;;;;;4.73;4.40;;;21.40;49.00;;;;;;5396675;26;20246;-61
2024/04/14 02:41:00;;;;;;;5.03;4.60;;;21.40;48.50;;;;;;5391806;26;20479;-60
2024/04/14 02:43:27;;;;;;;4.63;4.23;;;21.50;47.60;;;;;;5402155;26;20477;-62
2024/04/14 02:45:54;;;;;;;4.40;4.10;;;21.40;47.90;;;;;;5396402;26;20536;-63
2024/04/14 02:48:19;;;;;;;5.70;4.33;;;21.30;48.20;;;;;;5412489;26;20471;-61
2024/04/14 02:50:45;;;;;;;4.40;4.00;;;21.10;48.40;;;;;;5406658;26;20525;-62
2024/04/14 02:53:11;;;;;;;5.20;4.43;;;21.10;48.50;;;;;;5412008;26;20610;-63
2024/04/14 02:55:37;;;;;;;4.80;4.40;;;21.00;48.40;;;;;;5405183;26;20279;-61
2024/04/14 02:58:04;;;;;;;4.87;4.47;;;20.90;48.50;;;;;;5412053;26;20288;-63
2024/04/14 03:00:30;;;;;;;5.10;4.70;;;20.80;48.70;;;;;;5400718;26;20467;-59
2024/04/14 03:02:56;;;;;;;4.43;4.13;;;20.70;48.90;;;;;;5412222;26;20529;-58
2024/04/14 03:05:22;;;;;;;4.87;4.43;;;20.60;49.10;;;;;;5412248;26;20288;-64
2024/04/14 03:07:48;;;;;;;4.77;4.37;;;20.50;49.20;;;;;;5401585;26;20312;-57
2024/04/14 03:10:14;;;;;;;4.67;4.30;;;20.50;49.30;;;;;;5410821;26;20475;-58
2024/04/14 03:12:40;;;;;;;4.63;4.20;;;20.40;49.30;;;;;;5402861;26;20528;-63
2024/04/14 03:15:06;;;;;;;4.93;4.53;;;20.30;49.50;;;;;;5387425;26;20348;-64
2024/04/14 03:17:31;;;;;;;4.87;4.37;;;20.30;49.60;;;;;;5407109;26;20316;-62
2024/04/14 03:19:57;;;;;;;5.00;4.50;;;20.30;49.60;;;;;;5400573;26;20895;-59
2024/04/14 03:22:23;;;;;;;5.63;4.70;;;20.20;49.60;;;;;;5389833;26;20642;-58
2024/04/14 03:24:49;;;;;;;4.40;4.00;;;20.20;49.70;;;;;;5410832;26;20335;-59
2024/04/14 03:27:14;;;;;;;4.67;4.33;;;20.20;49.70;;;;;;5399081;26;20725;-62
2024/04/14 03:29:41;;;;;;;4.50;4.10;;;20.20;50.20;;;;;;5394617;26;21295;-60
2024/04/14 03:32:07;;;;;;;4.63;4.23;;;20.20;49.70;;;;;;5400129;26;20281;-61
2024/04/14 03:34:32;;;;;;;4.90;4.33;;;20.10;49.60;;;;;;5405925;26;20534;-59
2024/04/14 03:36:58;;;;;;;4.23;3.83;;;20.10;49.50;;;;;;5400106;26;20323;-62
2024/04/14 03:39:23;;;;;;;4.50;4.20;;;20.00;49.50;;;;;;5407377;26;20289;-61
2024/04/14 03:41:49;;;;;;;4.63;4.23;;;20.10;49.50;;;;;;5397197;26;20276;-59
2024/04/14 03:44:14;;;;;;;4.53;3.87;;;20.00;49.30;;;;;;5402755;26;20280;-59
2024/04/14 03:46:40;;;;;;;4.37;3.97;;;20.10;49.40;;;;;;5399393;26;20351;-62
2024/04/14 03:49:06;;;;;;;4.70;4.30;;;20.00;49.30;;;;;;5399561;26;20241;-62
2024/04/14 03:51:31;;;;;;;4.63;4.10;;;20.00;49.60;;;;;;5400694;26;20497;-61
2024/04/14 03:53:57;;;;;;;6.83;3.97;;;20.00;49.60;;;;;;5395898;26;20303;-59
2024/04/14 03:56:22;;;;;;;3.87;3.40;;;20.00;49.60;;;;;;5398044;26;22781;-62
2024/04/14 03:58:49;;;;;;;4.33;3.97;;;20.00;49.60;;;;;;5397772;26;20290;-62
2024/04/14 04:01:15;;;;;;;4.77;4.23;;;20.00;49.50;;;;;;5399158;26;20644;-61
2024/04/14 04:03:40;;;;;;;4.03;3.60;;;19.90;49.50;;;;;;5400264;26;20472;-60
2024/04/14 04:06:06;;;;;;;4.70;4.13;;;19.90;49.70;;;;;;5394122;26;20694;-62
2024/04/14 04:08:32;;;;;;;4.80;4.40;;;19.80;49.90;;;;;;5400309;26;20287;-58
2024/04/14 04:11:04;;;;;;;4.90;4.47;;;19.80;50.00;;;;;;5403668;26;20245;-57
2024/04/14 04:13:34;;;;;;;4.70;4.30;;;19.80;50.10;;;;;;5399923;26;20241;-58
2024/04/14 04:16:04;;;;;;;4.33;3.93;;;19.70;50.10;;;;;;5397962;26;20525;-59
2024/04/14 04:18:30;;;;;;;4.80;4.30;;;19.70;50.20;;;;;;5396256;26;20559;-59
2024/04/14 04:21:01;;;;;;;3.90;3.60;;;19.70;50.20;;;;;;5404305;26;20734;-58
2024/04/14 04:23:28;;;;;;;4.60;4.30;;;19.70;50.40;;;;;;5388519;26;20461;-60
2024/04/14 04:25:55;;;;;;;4.97;4.57;;;19.70;50.20;;;;;;5397540;26;20602;-61
2024/04/14 04:28:21;;;;;;;4.30;4.00;;;19.50;50.60;;;;;;5388595;26;20476;-62
2024/04/14 04:30:47;;;;;;;5.23;4.73;;;19.60;51.00;;;;;;5409421;26;20529;-58
2024/04/14 04:33:13;;;;;;;4.80;4.43;;;19.60;51.00;;;;;;5403299;26;20464;-58
2024/04/14 04:35:38;;;;;;;4.73;4.43;;;19.60;51.10;;;;;;5402776;26;20710;-61
2024/04/14 04:38:04;;;;;;;5.13;4.63;;;19.30;51.70;;;;;;5398650;26;20241;-62
2024/04/14 04:40:30;;;;;;;5.13;4.63;;;19.00;52.90;;;;;;5396051;26;20346;-60
2024/04/14 04:42:55;;;;;;;5.03;4.60;;;19.00;52.50;;;;;;5409291;26;20599;-60
2024/04/14 04:45:21;;;;;;;5.00;4.60;;;19.20;52.20;;;;;;5407420;26;20234;-62
2024/04/14 04:47:46;;;;;;;5.13;4.73;;;19.20;51.90;;;;;;5397692;26;20281;-61
2024/04/14 04:50:12;;;;;;;5.60;5.00;;;19.20;51.80;;;;;;5407598;26;20276;-63
2024/04/14 04:52:38;;;;;;;5.10;4.60;;;19.20;51.50;;;;;;5402763;26;20269;-59
2024/04/14 04:55:04;;;;;;;5.13;4.70;;;19.20;51.50;;;;;;5408423;26;20639;-60
2024/04/14 04:57:29;;;;;;;8.30;4.27;;;19.20;51.60;;;;;;5411339;26;20296;-59
2024/04/14 04:59:55;;;;;;;5.70;4.53;;;19.20;51.60;;;;;;5410194;26;20233;-65
2024/04/14 05:02:21;;;;;;;4.97;4.57;;;19.20;51.70;;;;;;5399281;26;20226;-58
2024/04/14 05:04:52;;;;;;;4.20;3.80;;;19.20;51.80;;;;;;5394846;26;20301;-64
2024/04/14 05:07:17;;;;;;;5.20;4.70;;;19.20;51.90;;;;;;5410620;26;21018;-60
2024/04/14 05:09:43;;;;;;;5.73;4.27;;;19.10;52.20;;;;;;5407057;26;20520;-61
2024/04/14 05:12:08;;;;;;;7.30;4.63;;;19.00;52.80;;;;;;5408071;26;20749;-57
2024/04/14 05:14:34;;;;;;;5.00;4.50;;;19.00;52.80;;;;;;5394688;26;20705;-59
2024/04/14 05:17:00;;;;;;;4.83;4.43;;;19.00;53.20;;;;;;5409985;26;20245;-61
2024/04/14 05:19:25;;;;;;;5.40;4.87;;;18.90;53.50;;;;;;5400629;26;20272;-62
2024/04/14 05:21:51;;;;;;;5.30;4.70;;;19.00;53.40;;;;;;5407791;26;20849;-61
2024/04/14 05:24:16;;;;;;;4.63;4.23;;;19.00;53.50;;;;;;5401614;26;20246;-63
2024/04/14 05:26:42;;;;;;;6.93;5.20;;;19.10;53.50;;;;;;5397213;26;20245;-62
2024/04/14 05:29:07;;;;;;;6.10;4.67;;;19.10;53.40;;;;;;5403727;26;20275;-64
2024/04/14 05:31:33;;;;;;;5.33;4.83;;;19.30;53.30;;;;;;5392922;26;20792;-59
2024/04/14 05:33:58;;;;;;;5.77;5.20;;;19.40;53.80;;;;;;5394219;26;20234;-61
2024/04/14 05:36:24;;;;;;;5.07;4.57;;;19.60;52.90;;;;;;5398516;26;20367;-62
2024/04/14 05:38:50;;;;;;;6.33;4.60;;;19.80;52.60;;;;;;5409421;26;20307;-62
2024/04/14 05:41:15;;;;;;;5.20;4.50;;;19.90;52.30;;;;;;5393236;26;20327;-63
2024/04/14 05:43:41;;;;;;;7.80;4.57;;;20.10;52.30;;;;;;5401876;26;20272;-59
2024/04/14 05:46:06;;;;;;;5.33;4.83;;;20.30;52.00;;;;;;5399601;26;20245;-62
2024/04/14 05:48:32;;;;;;;5.30;4.90;;;20.30;52.30;;;;;;5394882;26;20620;-62
2024/04/14 05:50:57;;;;;;;4.83;4.10;;;20.10;52.30;;;;;;5392441;26;21938;-64
2024/04/14 05:53:23;;;;;;;6.17;4.97;;;20.20;52.00;;;;;;5395976;26;20255;-60
2024/04/14 05:55:49;;;;;;;5.70;5.20;;;20.40;52.20;;;;;;5398328;26;20242;-62
2024/04/14 05:58:14;;;;;;;5.80;5.30;;;20.60;51.80;;;;;;5400835;26;20257;-61
2024/04/14 06:00:40;;;;;;;5.57;5.07;;;20.70;51.60;;;;;;5407849;26;20334;-61
2024/04/14 06:03:07;;;;;;;5.67;5.17;;;20.80;51.30;;;;;;5407749;26;20343;-62
2024/04/14 06:05:32;;;;;;;9.17;4.30;;;20.90;51.00;;;;;;5407796;26;20296;-61
2024/04/14 06:07:58;;;;;;;8.00;4.30;;;21.00;50.90;;;;;;5410275;26;20459;-59
2024/04/14 06:10:24;;;;;;;4.90;4.40;;;21.10;50.60;;;;;;5385462;26;20654;-57
2024/04/14 06:12:50;;;;;;;5.67;4.67;;;21.20;50.50;;;;;;5396989;26;20237;-62
2024/04/14 06:15:15;;;;;;;4.70;4.30;;;21.10;50.90;;;;;;5407610;26;20577;-59
2024/04/14 06:17:41;;;;;;;5.50;4.77;;;21.10;50.90;;;;;;5404102;26;20242;-61
2024/04/14 06:20:07;;;;;;;5.63;5.00;;;21.20;50.60;;;;;;5398500;26;20238;-61
2024/04/14 06:22:32;;;;;;;6.00;5.00;;;21.20;50.80;;;;;;5397782;26;20294;-61
2024/04/14 06:24:58;;;;;;;7.17;4.80;;;21.30;50.60;;;;;;5396227;26;20867;-60
2024/04/14 06:27:24;;;;;;;5.80;5.20;;;21.30;50.70;;;;;;5396842;26;20253;-61
2024/04/14 06:29:49;;;;;;;5.63;5.00;;;21.40;50.80;;;;;;5387699;26;20723;-59
2024/04/14 06:32:15;;;;;;;4.80;4.20;;;21.30;50.80;;;;;;5403973;26;20249;-59
2024/04/14 06:34:40;;;;;;;7.23;5.20;;;21.20;51.30;;;;;;5406751;26;20756;-62
2024/04/14 06:37:06;;;;;;;4.90;4.50;;;21.30;51.10;;;;;;5404832;26;20271;-61
2024/04/14 06:39:32;;;;;;;5.30;4.90;;;21.40;51.00;;;;;;5394973;26;20301;-59
2024/04/14 06:41:58;;;;;;;5.40;4.90;;;21.60;50.90;;;;;;5398846;26;20233;-62
2024/04/14 06:44:24;;;;;;;5.57;5.07;;;21.80;50.80;;;;;;5387055;26;20289;-59
2024/04/14 06:46:49;;;;;;;4.83;4.30;;;21.90;50.60;;;;;;5404610;26;20463;-62
2024/04/14 06:49:15;;;;;;;6.23;4.43;;;22.00;50.80;;;;;;5400666;26;20241;-62
2024/04/14 06:51:40;;;;;;;4.90;4.53;;;22.10;50.50;;;;;;5401973;26;20253;-62
2024/04/14 06:54:06;;;;;;;4.60;4.20;;;22.30;50.60;;;;;;5398869;26;20241;-61
2024/04/14 06:56:32;;;;;;;5.87;4.60;;;22.50;50.20;;;;;;5390349;26;20227;-62
2024/04/14 06:58:58;;;;;;;8.83;4.90;;;22.70;49.90;;;;;;5394607;26;20274;-58
2024/04/14 07:01:23;;;;;;;4.73;4.33;;;22.70;50.20;;;;;;5383842;26;20469;-62
2024/04/14 07:03:50;;;;;;;4.90;4.40;;;22.50;50.50;;;;;;5395831;26;20249;-61
2024/04/14 07:06:15;;;;;;;5.17;4.67;;;22.70;49.80;;;;;;5395773;26;20237;-61
2024/04/14 07:08:41;;;;;;;5.47;4.87;;;22.90;49.30;;;;;;5399011;26;20464;-61
2024/04/14 07:11:06;;;;;;;4.80;4.40;;;23.20;49.50;;;;;;5393162;26;20242;-64
2024/04/14 07:13:32;;;;;;;6.27;4.23;;;23.30;49.20;;;;;;5391388;26;20250;-59
2024/04/14 07:15:58;;;;;;;5.90;4.20;;;23.50;49.30;;;;;;5393110;26;20294;-63
2024/04/14 07:18:23;;;;;;;4.70;4.30;;;23.70;49.10;;;;;;5403742;26;20246;-59
2024/04/14 07:20:49;;;;;;;5.10;4.40;;;23.90;48.80;;;;;;5396007;26;20246;-63
2024/04/14 07:23:14;;;;;;;5.13;4.73;;;24.00;48.60;;;;;;5396608;26;20230;-62
2024/04/14 07:25:40;;;;;;;6.47;4.67;;;24.10;48.30;;;;;;5398182;26;21300;-62
2024/04/14 07:28:06;;;;;;;4.97;4.57;;;24.20;48.30;;;;;;5407046;26;20383;-61
2024/04/14 07:30:31;;;;;;;5.27;4.77;;;24.40;48.00;;;;;;5399323;26;20309;-61
2024/04/14 07:32:57;;;;;;;4.50;4.20;;;24.50;47.60;;;;;;5406262;26;20288;-61
2024/04/14 07:35:22;;;;;;;4.77;4.20;;;24.60;47.50;;;;;;5403843;26;20780;-60
2024/04/14 07:37:48;;;;;;;5.50;5.00;;;24.80;47.50;;;;;;5398890;26;20239;-61
2024/04/14 07:40:13;;;;;;;5.93;5.27;;;24.90;47.80;;;;;;5400059;26;20297;-63
2024/04/14 07:42:39;;;;;;;5.10;4.70;;;25.00;47.40;;;;;;5395511;26;20267;-65
2024/04/14 07:45:05;;;;;;;5.60;5.10;;;25.10;47.10;;;;;;5409587;26;20237;-61
2024/04/14 07:47:30;;;;;;;5.37;4.87;;;25.20;47.50;;;;;;5404542;26;20321;-59
2024/04/14 07:49:56;;;;;;;4.90;4.00;;;25.20;47.60;;;;;;5411147;26;20322;-63
2024/04/14 07:52:22;;;;;;;4.67;4.37;;;25.40;46.60;;;;;;5394763;26;20293;-63
2024/04/14 07:54:47;;;;;;;3.97;3.60;;;25.50;46.60;;;;;;5408597;26;20293;-64
2024/04/14 07:57:13;;;;;;;5.87;3.60;;;25.60;46.70;;;;;;5408511;26;20255;-65
2024/04/14 07:59:38;;;;;;;4.30;3.50;;;25.70;45.20;;;;;;5394919;26;20245;-62
2024/04/14 08:02:04;;;;;;;3.20;2.90;;;25.90;45.00;;;;;;5394436;26;20230;-62
2024/04/14 08:04:30;;;;;;;3.07;2.73;;;26.10;44.70;;;;;;5402932;26;20273;-63
2024/04/14 08:06:55;;;;;;;3.10;2.80;;;26.20;45.30;;;;;;5404088;26;20288;-62
2024/04/14 08:09:21;;;;;;;3.30;3.00;;;26.30;45.30;;;;;;5408558;26;20628;-62
2024/04/14 08:11:47;;;;;;;2.60;2.40;;;26.40;43.20;;;;;;5399906;26;20238;-63
2024/04/14 08:14:13;;;;;;;3.10;2.90;;;26.50;43.20;;;;;;5406300;26;20241;-63
2024/04/14 08:16:39;;;;;;;2.77;2.53;;;26.60;43.40;;;;;;5405374;26;20242;-61
2024/04/14 08:19:05;;;;;;;2.47;2.37;;;26.70;43.50;;;;;;5401233;26;20808;-61
2024/04/14 08:21:31;;;;;;;6.30;2.80;;;26.70;43.20;;;;;;5400571;26;20475;-62
2024/04/14 08:23:56;;;;;;;3.27;2.30;;;26.80;42.10;;;;;;5410606;26;20341;-62
2024/04/14 08:26:22;;;;;;;3.30;2.20;;;26.80;41.60;;;;;;5412115;26;20539;-61
2024/04/14 08:28:48;;;;;;;4.00;2.43;;;26.90;42.10;;;;;;5390061;26;20350;-63
2024/04/14 08:31:13;;;;;;;2.50;2.30;;;27.00;41.80;;;;;;5406570;26;20245;-59
2024/04/14 08:33:39;;;;;;;3.43;2.50;;;27.10;41.40;;;;;;5402270;26;20280;-62
2024/04/14 08:36:05;;;;;;;2.47;2.27;;;27.20;41.30;;;;;;5406489;26;20238;-60
2024/04/14 08:38:31;;;;;;;2.27;2.07;;;27.30;40.60;;;;;;5404667;26;20242;-62
2024/04/14 08:40:58;;;;;;;4.07;2.40;;;27.30;40.40;;;;;;5406350;26;21046;-62
2024/04/14 08:43:24;;;;;;;3.03;2.73;;;27.40;40.60;;;;;;5394646;26;20827;-62
2024/04/14 08:45:54;;;;;;;2.47;2.33;;;27.40;41.00;;;;;;5405862;26;20543;-60
2024/04/14 08:48:20;;;;;;;2.60;2.37;;;27.60;41.40;;;;;;5407718;26;20280;-62
2024/04/14 08:50:50;;;;;;;5.03;2.27;;;27.70;41.20;;;;;;5401677;26;20921;-62
2024/04/14 08:53:18;;;;;;;3.03;2.30;;;27.80;40.00;;;;;;5396879;26;20516;-63
2024/04/14 08:55:44;;;;;;;2.70;2.50;;;27.80;40.60;;;;;;5403292;26;20512;-62
2024/04/14 08:58:12;;;;;;;2.57;2.37;;;27.90;41.20;;;;;;5405623;26;20471;-62
2024/04/14 09:00:38;;;;;;;2.37;2.17;;;28.10;40.70;;;;;;5409274;26;20459;-63
2024/04/14 09:03:04;;;;;;;2.33;2.13;;;28.20;41.30;;;;;;5410215;26;20460;-63
2024/04/14 09:05:34;;;;;;;2.50;2.30;;;28.40;41.10;;;;;;5394095;26;20243;-61
2024/04/14 09:07:59;;;;;;;2.70;2.30;;;28.50;41.10;;;;;;5388750;26;21133;-60
2024/04/14 09:10:25;;;;;;;2.93;2.13;;;28.70;39.80;;;;;;5395324;26;20469;-62
2024/04/14 09:12:53;;;;;;;2.53;2.23;;;28.80;39.90;;;;;;5397313;26;20279;-62
2024/04/14 09:15:19;;;;;;;2.63;2.43;;;28.90;39.80;;;;;;5399304;26;20346;-62
2024/04/14 09:17:44;;;;;;;2.90;2.33;;;29.00;40.00;;;;;;5400677;26;20892;-63
2024/04/14 09:20:10;;;;;;;3.40;2.40;;;29.10;39.60;;;;;;5406383;26;20231;-61
2024/04/14 09:22:37;;;;;;;5.80;2.23;;;29.30;39.70;;;;;;5382994;26;20348;-61
2024/04/14 09:25:07;;;;;;;5.23;2.80;;;29.40;39.70;;;;;;5406445;26;20516;-64
2024/04/14 09:27:36;;;;;;;3.17;2.80;;;29.40;38.20;;;;;;5400892;26;21487;-64
2024/04/14 09:30:20;;;;;;;3.80;2.67;;;29.40;38.80;;;;;;5399626;26;20527;-63
2024/04/14 09:32:47;;;;;;;2.93;2.40;;;29.40;38.50;;;;;;5407701;26;20537;-63
2024/04/14 09:35:14;;;;;;;2.50;2.30;;;29.50;38.10;;;;;;5408995;26;20544;-64
2024/04/14 09:37:40;;;;;;;4.23;2.40;;;29.70;38.60;;;;;;5409648;26;20463;-62
2024/04/14 09:40:09;;;;;;;3.13;2.80;;;29.90;39.40;;;;;;5406060;26;21114;-62
2024/04/14 09:42:35;;;;;;;2.93;2.63;;;29.90;38.70;;;;;;5407771;26;20238;-63
2024/04/14 09:45:06;;;;;;;3.80;2.70;;;30.00;39.40;;;;;;5407342;26;21011;-63
2024/04/14 09:47:32;;;;;;;4.10;2.70;;;30.00;38.90;;;;;;5402036;26;20878;-64
2024/04/14 09:49:58;;;;;;;2.80;2.50;;;30.10;39.10;;;;;;5406177;26;20476;-61
2024/04/14 09:52:25;;;;;;;4.70;3.00;;;30.20;38.70;;;;;;5401673;26;20525;-63
2024/04/14 09:54:52;;;;;;;2.70;2.50;;;30.20;37.70;;;;;;5408475;26;20483;-62
2024/04/14 09:57:18;;;;;;;2.70;2.40;;;30.30;37.60;;;;;;5401106;26;20503;-62
2024/04/14 09:59:44;;;;;;;3.97;2.47;;;30.30;37.90;;;;;;5397931;26;21010;-63
2024/04/14 10:02:19;;;;;;;4.00;2.73;;;30.30;37.90;;;;;;5398310;26;20238;-63
2024/04/14 10:04:47;;;;;;;5.67;2.60;;;30.30;37.60;;;;;;5401680;26;20233;-63
2024/04/14 10:07:14;;;;;;;5.97;2.50;;;30.30;37.80;;;;;;5403324;26;20478;-64
2024/04/14 10:09:47;;;;;;;2.83;2.63;;;30.20;37.90;;;;;;5406240;26;21036;-63
2024/04/14 10:12:13;;;;;;;3.53;2.60;;;30.20;38.20;;;;;;5397164;26;21101;-63
2024/04/14 10:14:43;;;;;;;2.97;2.50;;;30.20;38.00;;;;;;5407935;26;21085;-63
2024/04/14 10:17:11;;;;;;;3.00;2.30;;;30.40;37.70;;;;;;5402710;26;21146;-62
2024/04/14 10:19:37;;;;;;;2.47;2.23;;;30.40;38.10;;;;;;5404347;26;20490;-64
2024/04/14 10:22:10;;;;;;;3.23;2.80;;;30.50;39.30;;;;;;5406722;26;20532;-60
2024/04/14 10:24:49;;;;;;;3.73;2.43;;;30.70;38.80;;;;;;5408259;26;20276;-63
2024/04/14 10:27:15;;;;;;;3.23;2.90;;;30.90;38.80;;;;;;5403599;26;20514;-63
2024/04/14 10:29:41;;;;;;;3.03;2.77;;;31.00;38.70;;;;;;5407089;26;20572;-62
2024/04/14 10:32:12;;;;;;;4.13;2.83;;;31.20;39.00;;;;;;5402929;26;20471;-64
2024/04/14 10:34:38;;;;;;;3.50;2.80;;;31.30;37.50;;;;;;5405602;26;20490;-63
2024/04/14 10:37:04;;;;;;;2.97;2.77;;;31.30;37.40;;;;;;5367282;26;20479;-63
2024/04/14 10:39:31;;;;;;;5.20;2.47;;;31.30;37.10;;;;;;5400553;26;20338;-63
2024/04/14 10:41:57;;;;;;;5.57;2.27;;;31.30;37.90;;;;;;5406830;26;20620;-61
2024/04/14 10:44:22;;;;;;;3.47;2.60;;;31.50;38.00;;;;;;5407065;26;20464;-62
2024/04/14 10:46:48;;;;;;;4.80;2.90;;;31.70;36.80;;;;;;5404575;26;20257;-64
2024/04/14 10:49:14;;;;;;;2.60;2.40;;;31.70;36.30;;;;;;5393622;26;20238;-61
2024/04/14 10:51:41;;;;;;;4.13;2.60;;;31.60;37.20;;;;;;5403137;26;20237;-64
2024/04/14 10:54:07;;;;;;;4.00;3.00;;;31.60;37.50;;;;;;5407994;26;20535;-63
2024/04/14 10:56:32;;;;;;;3.13;2.83;;;31.70;36.80;;;;;;5408807;26;20543;-62
2024/04/14 10:58:58;;;;;;;3.07;2.77;;;31.70;37.10;;;;;;5408334;26;20733;-64
2024/04/14 11:01:24;;;;;;;3.07;2.53;;;31.70;37.00;;;;;;5398707;26;20277;-63
2024/04/14 11:03:50;;;;;;;3.20;2.47;;;31.70;37.10;;;;;;5407478;26;20229;-61
2024/04/14 11:06:17;;;;;;;3.17;2.70;;;32.20;38.10;;;;;;5400071;26;20882;-62
2024/04/14 11:08:43;;;;;;;4.17;2.70;;;32.00;37.00;;;;;;5409207;26;20459;-63
2024/04/14 11:11:09;;;;;;;2.57;2.37;;;32.10;36.90;;;;;;5409322;26;20514;-61
2024/04/14 11:13:35;;;;;;;2.80;2.60;;;32.10;38.10;;;;;;5401262;26;20533;-60
2024/04/14 11:16:02;;;;;;;2.80;2.60;;;32.30;36.70;;;;;;5409102;26;20459;-64
2024/04/14 11:18:31;;;;;;;3.50;2.90;;;32.40;36.20;;;;;;5401223;26;20345;-61
2024/04/14 11:20:57;;;;;;;3.87;3.13;;;32.50;35.60;;;;;;5411499;26;20475;-62
2024/04/14 11:23:23;;;;;;;2.50;2.30;;;32.30;35.40;;;;;;5408494;26;20455;-61
2024/04/14 11:25:49;;;;;;;2.10;2.00;;;32.40;36.20;;;;;;5411330;26;20241;-63
2024/04/14 11:28:15;;;;;;;3.13;2.70;;;32.30;35.80;;;;;;5406070;26;20233;-61
2024/04/14 11:30:42;;;;;;;3.43;3.13;;;32.30;35.10;;;;;;5406355;26;20527;-62
2024/04/14 11:33:08;;;;;;;3.17;2.87;;;32.30;35.30;;;;;;5408628;26;20241;-59
2024/04/14 11:35:34;;;;;;;3.13;2.93;;;32.40;35.20;;;;;;5410483;26;20531;-59
2024/04/14 11:37:59;;;;;;;3.97;2.80;;;32.20;34.80;;;;;;5409886;26;20583;-61
2024/04/14 11:40:26;;;;;;;3.10;2.80;;;32.00;35.20;;;;;;5412518;26;20245;-62
2024/04/14 11:42:51;;;;;;;3.20;2.70;;;32.00;35.30;;;;;;5412937;26;20319;-63
2024/04/14 11:45:18;;;;;;;5.17;2.53;;;32.20;35.50;;;;;;5407352;26;20856;-62
2024/04/14 11:47:45;;;;;;;2.87;2.63;;;32.30;35.70;;;;;;5412834;26;20281;-60
2024/04/14 11:50:11;;;;;;;4.07;3.30;;;32.40;35.60;;;;;;5400741;26;21351;-62
2024/04/14 11:52:36;;;;;;;2.60;2.37;;;32.30;34.80;;;;;;5410116;26;20431;-63
2024/04/14 11:55:04;;;;;;;3.00;2.70;;;32.50;34.70;;;;;;5405301;26;20522;-66
2024/04/14 11:57:29;;;;;;;4.20;2.70;;;32.60;34.50;;;;;;5415958;26;20581;-60
2024/04/14 11:59:55;;;;;;;3.00;2.30;;;32.60;34.70;;;;;;5402030;26;20512;-67
2024/04/14 12:02:21;;;;;;;3.60;2.83;;;32.70;34.60;;;;;;5402438;26;20782;-63
2024/04/14 12:04:51;;;;;;;2.60;2.40;;;32.70;34.10;;;;;;5403244;26;20237;-63
2024/04/14 12:07:16;;;;;;;2.50;2.30;;;32.70;33.90;;;;;;5397366;26;20475;-62
2024/04/14 12:09:42;;;;;;;4.57;2.60;;;;;;;;;;5409454;26;21105;-62
2024/04/14 12:12:08;;;;;;;2.97;2.63;;;32.90;33.10;;;;;;5409934;26;20233;-60
2024/04/14 12:14:33;;;;;;;2.70;2.50;;;32.80;33.60;;;;;;5387785;26;20267;-62
2024/04/14 12:16:59;;;;;;;2.83;2.63;;;32.50;33.50;;;;;;5401302;26;20241;-64
2024/04/14 12:19:26;;;;;;;2.80;2.60;;;32.70;33.40;;;;;;5408394;26;20584;-61
2024/04/14 12:21:51;;;;;;;2.80;2.60;;;32.70;33.50;;;;;;5420030;26;20571;-62
2024/04/14 12:24:17;;;;;;;2.47;2.27;;;32.80;33.90;;;;;;5394381;26;20475;-63
2024/04/14 12:26:43;;;;;;;3.13;2.83;;;32.70;33.60;;;;;;5403513;26;20302;-61
2024/04/14 12:29:10;;;;;;;3.20;2.80;;;32.80;34.30;;;;;;5408760;26;20471;-63
2024/04/14 12:31:35;;;;;;;2.87;2.50;;;32.90;34.80;;;;;;5408171;26;20471;-63
2024/04/14 12:34:01;;;;;;;5.80;2.67;;;32.90;35.10;;;;;;5406654;26;20483;-63
2024/04/14 12:36:27;;;;;;;3.70;2.70;;;33.00;34.80;;;;;;5403288;26;20789;-60
2024/04/14 12:38:53;;;;;;;3.20;2.73;;;32.90;34.20;;;;;;5411476;26;20272;-62
2024/04/14 12:41:20;;;;;;;4.60;2.70;;;32.70;33.70;;;;;;5403881;26;20238;-60